CCA3322 ZUGH-ZUSN

Flight info

Callsign CCA3322
Flight time 0h 24m
Altitude 15000
Route ZUGH DCT ZUSN
Aircraft A320/M-SDE1GH/LB1

Departure

Time 2026-05-08 08:38
Airport Guanghan Airport (ZUGH)

Arrival

Time 2026-05-08 09:02
Airport Suining Airport (ZUSN)
Time Latitude Longitude Altitude Speed Heading
2026-05-08 08:32 30.94726 104.32749 1536 ft 0 kts 35°
2026-05-08 08:34 30.94727 104.32750 1536 ft 2 kts 34°
2026-05-08 08:35 30.94747 104.32762 1530 ft 4 kts 14°
2026-05-08 08:35 30.94769 104.32744 1536 ft 5 kts 311°
2026-05-08 08:35 30.94798 104.32699 1534 ft 8 kts 306°
2026-05-08 08:35 30.94838 104.32636 1535 ft 11 kts 306°
2026-05-08 08:36 30.94890 104.32553 1530 ft 14 kts 306°
2026-05-08 08:36 30.94954 104.32452 1534 ft 17 kts 306°
2026-05-08 08:36 30.95027 104.32337 1537 ft 19 kts 306°
2026-05-08 08:36 30.95108 104.32208 1536 ft 21 kts 306°
2026-05-08 08:37 30.95158 104.32129 1536 ft 21 kts 306°
2026-05-08 08:37 30.95228 104.32053 1537 ft 18 kts 336°
2026-05-08 08:37 30.95335 104.32031 1534 ft 14 kts 351°
2026-05-08 08:37 30.95407 104.32050 1540 ft 8 kts 58°
2026-05-08 08:38 30.95396 104.32093 1537 ft 4 kts 126°
2026-05-08 08:38 30.95212 104.32386 1538 ft 92 kts 126°
2026-05-08 08:38 30.94658 104.33261 1623 ft 168 kts 126°
2026-05-08 08:38 30.93914 104.34439 2402 ft 193 kts 126°
2026-05-08 08:39 30.93080 104.35762 3235 ft 212 kts 126°
2026-05-08 08:39 30.92168 104.37208 4033 ft 230 kts 126°
2026-05-08 08:39 30.91181 104.38770 4816 ft 244 kts 126°
2026-05-08 08:39 30.90125 104.40440 5629 ft 270 kts 126°
2026-05-08 08:40 30.88813 104.41997 6471 ft 273 kts 147°
2026-05-08 08:40 30.87088 104.42954 7283 ft 276 kts 156°
2026-05-08 08:40 30.85316 104.43849 8104 ft 281 kts 156°
2026-05-08 08:40 30.83487 104.44728 8759 ft 285 kts 163°
2026-05-08 08:41 30.81543 104.45135 9426 ft 286 kts 172°
2026-05-08 08:41 30.79551 104.45456 10118 ft 290 kts 172°
2026-05-08 08:41 30.77459 104.45801 10752 ft 317 kts 172°
2026-05-08 08:41 30.75205 104.46196 11488 ft 338 kts 171°
2026-05-08 08:42 30.72819 104.46620 12296 ft 355 kts 171°
2026-05-08 08:42 30.70326 104.47059 13122 ft 370 kts 171°
2026-05-08 08:42 30.67755 104.47509 13763 ft 387 kts 171°
2026-05-08 08:42 30.65069 104.47981 14461 ft 392 kts 171°
2026-05-08 08:43 30.62355 104.48459 15020 ft 400 kts 171°
2026-05-08 08:43 30.59594 104.49044 15001 ft 401 kts 163°
2026-05-08 08:43 30.57121 104.50467 14974 ft 398 kts 144°
2026-05-08 08:43 30.55199 104.52756 14976 ft 399 kts 124°
2026-05-08 08:44 30.54049 104.55663 14985 ft 398 kts 103°
2026-05-08 08:44 30.53878 104.58855 14937 ft 398 kts 83°
2026-05-08 08:44 30.54548 104.61961 14837 ft 397 kts 68°
2026-05-08 08:44 30.55701 104.64866 14774 ft 396 kts 65°
2026-05-08 08:45 30.56860 104.67763 14692 ft 397 kts 65°
2026-05-08 08:45 30.58000 104.70677 14602 ft 396 kts 65°
2026-05-08 08:45 30.58998 104.73643 14491 ft 395 kts 74°
2026-05-08 08:45 30.59462 104.76778 14419 ft 394 kts 85°
2026-05-08 08:46 30.59685 104.79947 14355 ft 394 kts 85°
2026-05-08 08:46 30.59917 104.83117 14285 ft 394 kts 85°
2026-05-08 08:46 30.60166 104.86286 14170 ft 393 kts 84°
2026-05-08 08:46 30.60420 104.89439 14055 ft 392 kts 84°
2026-05-08 08:47 30.60669 104.92587 13941 ft 392 kts 85°
2026-05-08 08:47 30.60916 104.95736 13823 ft 391 kts 85°
2026-05-08 08:47 30.61164 104.98875 13709 ft 390 kts 85°
2026-05-08 08:47 30.61413 105.02007 13588 ft 390 kts 85°
2026-05-08 08:48 30.61658 105.05094 13472 ft 389 kts 85°
2026-05-08 08:48 30.61905 105.08212 13349 ft 388 kts 84°
2026-05-08 08:48 30.62459 105.11264 13222 ft 388 kts 69°
2026-05-08 08:48 30.63836 105.13930 13104 ft 386 kts 49°
2026-05-08 08:49 30.65906 105.15888 13018 ft 386 kts 29°
2026-05-08 08:49 30.68423 105.16928 12978 ft 386 kts 10°
2026-05-08 08:49 30.71099 105.17076 12957 ft 385 kts 359°
2026-05-08 08:49 30.73779 105.17046 12934 ft 386 kts 359°
2026-05-08 08:50 30.76468 105.17047 12911 ft 385 kts
2026-05-08 08:50 30.79146 105.17065 12876 ft 386 kts
2026-05-08 08:50 30.81834 105.17080 12775 ft 386 kts
2026-05-08 08:50 30.84510 105.17088 12683 ft 384 kts
2026-05-08 08:51 30.87141 105.17533 12573 ft 385 kts 19°
2026-05-08 08:51 30.89446 105.19066 12472 ft 383 kts 40°
2026-05-08 08:51 30.91103 105.21469 12380 ft 382 kts 62°
2026-05-08 08:51 30.91943 105.24395 12243 ft 383 kts 81°
2026-05-08 08:52 30.92145 105.27475 12111 ft 380 kts 87°
2026-05-08 08:52 30.92285 105.30558 11901 ft 382 kts 86°
2026-05-08 08:52 30.92437 105.33625 11654 ft 378 kts 86°
2026-05-08 08:52 30.92362 105.36679 11356 ft 378 kts 101°
2026-05-08 08:53 30.91411 105.39496 11096 ft 375 kts 122°
2026-05-08 08:53 30.89679 105.41744 10794 ft 375 kts 142°
2026-05-08 08:53 30.87394 105.43151 10504 ft 371 kts 162°
2026-05-08 08:53 30.84847 105.43615 10246 ft 371 kts 176°
2026-05-08 08:54 30.82272 105.43792 9985 ft 369 kts 176°
2026-05-08 08:54 30.79713 105.43989 9702 ft 363 kts 176°
2026-05-08 08:54 30.77309 105.44198 9400 ft 331 kts 175°
2026-05-08 08:54 30.75124 105.44389 9097 ft 308 kts 176°
2026-05-08 08:55 30.73051 105.44557 8799 ft 290 kts 178°
2026-05-08 08:55 30.71104 105.44181 8494 ft 284 kts 203°
2026-05-08 08:55 30.69451 105.42943 8233 ft 282 kts 217°
2026-05-08 08:55 30.67884 105.41573 7978 ft 279 kts 217°
2026-05-08 08:56 30.66358 105.40267 7700 ft 266 kts 216°
2026-05-08 08:56 30.64855 105.39094 7411 ft 255 kts 207°
2026-05-08 08:56 30.63172 105.38651 7122 ft 246 kts 178°
2026-05-08 08:56 30.61569 105.39215 6809 ft 240 kts 149°
2026-05-08 08:57 30.60238 105.40343 6518 ft 233 kts 142°
2026-05-08 08:57 30.59015 105.41448 6181 ft 211 kts 142°
2026-05-08 08:57 30.57899 105.42437 5848 ft 192 kts 143°
2026-05-08 08:57 30.56929 105.43348 5554 ft 169 kts 137°
2026-05-08 08:58 30.56190 105.44318 5248 ft 154 kts 127°
2026-05-08 08:58 30.55617 105.45317 4941 ft 144 kts 122°
2026-05-08 08:58 30.55110 105.46275 4633 ft 135 kts 121°
2026-05-08 08:58 30.54630 105.47206 4314 ft 134 kts 121°
2026-05-08 08:59 30.54150 105.48138 3982 ft 135 kts 121°
2026-05-08 08:59 30.53674 105.49073 3658 ft 135 kts 120°
2026-05-08 08:59 30.53200 105.50017 3343 ft 136 kts 120°
2026-05-08 08:59 30.52711 105.50976 3007 ft 140 kts 121°
2026-05-08 09:00 30.52215 105.51942 2669 ft 138 kts 121°
2026-05-08 09:00 30.51730 105.52875 2347 ft 137 kts 121°
2026-05-08 09:00 30.51229 105.53827 2105 ft 138 kts 122°
2026-05-08 09:00 30.50725 105.54773 1887 ft 137 kts 122°
2026-05-08 09:01 30.50210 105.55713 1687 ft 139 kts 123°
2026-05-08 09:01 30.49677 105.56653 1500 ft 139 kts 123°
2026-05-08 09:01 30.49135 105.57582 1326 ft 139 kts 124°
2026-05-08 09:01 30.48600 105.58493 1213 ft 134 kts 124°
2026-05-08 09:02 30.48096 105.59380 1104 ft 130 kts 123°
2026-05-08 09:02 30.47620 105.60231 1003 ft 117 kts 123°
2026-05-08 09:02 30.47205 105.60951 918 ft 81 kts 123°
2026-05-08 09:02 30.47096 105.61142 917 ft 13 kts 123°
2026-05-08 09:03 30.47052 105.61219 917 ft 10 kts 123°
2026-05-08 09:03 30.47015 105.61244 916 ft 4 kts 179°
2026-05-08 09:03 30.46987 105.61226 916 ft 5 kts 213°
2026-05-08 09:03 30.46953 105.61200 916 ft 6 kts 213°